Time;durP1;ratioP1;P1;durP2;ratioP2;P2;SDS_P1;SDS_P2;PMS_P1;PMS_P2;Temp;Humidity;BMP_temperature;BMP_pressure;BME280_temperature;BME280_humidity;BME280_pressure;Samples;Min_cycle;Max_cycle;Signal;HPM_P1;HPM_P2
2023/07/23 00:04:47;;;;;;;;;;;;;;;20.32;53.56;99209.84;10328538;28;972;-64
2023/07/23 00:09:43;;;;;;;;;;;;;;;20.32;53.77;99207.19;10328375;28;961;-64
2023/07/23 00:14:39;;;;;;;;;;;;;;;20.31;53.76;99193.13;10328673;28;817;-64
2023/07/23 00:19:35;;;;;;;;;;;;;;;20.31;53.64;99193.13;10328812;28;1894;-64
2023/07/23 00:24:31;;;;;;;;;;;;;;;20.31;53.75;99179.88;10328237;28;810;-64
2023/07/23 00:29:26;;;;;;;;;;;;;;;20.30;53.64;99172.91;10326951;28;854;-64
2023/07/23 00:34:22;;;;;;;;;;;;;;;20.31;53.68;99177.25;10329590;28;1303;-64
2023/07/23 00:39:18;;;;;;;;;;;;;;;20.31;53.72;99171.09;10327281;28;1961;-64
2023/07/23 00:44:14;;;;;;;;;;;;;;;20.29;53.67;99147.38;10327042;28;774;-64
2023/07/23 00:49:10;;;;;;;;;;;;;;;20.30;53.77;99132.34;10326842;28;771;-64
2023/07/23 00:54:06;;;;;;;;;;;;;;;20.29;53.74;99117.41;10326611;28;857;-64
2023/07/23 00:59:02;;;;;;;;;;;;;;;20.29;53.74;99104.19;10326404;28;1959;-64
2023/07/23 01:03:57;;;;;;;;;;;;;;;20.29;53.73;99093.59;10325691;28;790;-64
2023/07/23 01:08:56;;;;;;;;;;;;;;;20.30;53.72;99092.63;10326297;28;898;-64
2023/07/23 01:13:52;;;;;;;;;;;;;;;20.28;53.79;99084.81;10326059;28;786;-64
2023/07/23 01:18:48;;;;;;;;;;;;;;;20.28;53.82;99079.53;10326372;28;1890;-64
2023/07/23 01:23:44;;;;;;;;;;;;;;;20.28;53.80;99065.44;10325816;28;763;-64
2023/07/23 01:28:40;;;;;;;;;;;;;;;20.27;53.68;99061.06;10325060;28;888;-64
2023/07/23 01:33:35;;;;;;;;;;;;;;;20.27;53.67;99053.13;10325414;28;1434;-64
2023/07/23 01:38:31;;;;;;;;;;;;;;;20.28;53.72;99049.56;10325394;28;1902;-64
2023/07/23 01:43:27;;;;;;;;;;;;;;;20.27;53.69;99039.91;10325961;28;917;-64
2023/07/23 01:48:23;;;;;;;;;;;;;;;20.26;53.74;99025.84;10325721;28;839;-65
2023/07/23 01:53:19;;;;;;;;;;;;;;;20.26;53.75;99025.84;10325181;28;822;-64
2023/07/23 01:58:15;;;;;;;;;;;;;;;20.26;53.63;99019.69;10325586;28;1890;-64
2023/07/23 02:03:11;;;;;;;;;;;;;;;20.25;53.73;99010.91;10324931;28;914;-64
2023/07/23 02:08:06;;;;;;;;;;;;;;;20.25;53.77;98997.69;10325454;28;842;-64
2023/07/23 02:13:02;;;;;;;;;;;;;;;20.23;53.75;98994.28;10325428;28;909;-64
2023/07/23 02:17:58;;;;;;;;;;;;;;;20.26;53.67;98990.59;10324609;28;1894;-64
2023/07/23 02:22:54;;;;;;;;;;;;;;;20.24;53.62;98995.13;10329026;28;862;-64
2023/07/23 02:27:50;;;;;;;;;;;;;;;20.23;53.64;98986.34;10332266;28;1052;-64
2023/07/23 02:32:46;;;;;;;;;;;;;;;20.22;53.68;98974.03;10332712;28;1279;-64
2023/07/23 02:37:42;;;;;;;;;;;;;;;20.22;53.65;98976.69;10331888;28;1909;-64
2023/07/23 02:42:37;;;;;;;;;;;;;;;20.22;53.37;98971.41;10332314;28;859;-64
2023/07/23 02:47:33;;;;;;;;;;;;;;;20.22;53.62;98965.25;10332210;28;960;-64
2023/07/23 02:52:29;;;;;;;;;;;;;;;20.22;53.61;98959.97;10331970;28;774;-64
2023/07/23 02:57:25;;;;;;;;;;;;;;;20.21;53.53;98956.47;10331121;28;1898;-64
2023/07/23 03:02:21;;;;;;;;;;;;;;;20.21;53.60;98951.19;10331532;28;959;-64
2023/07/23 03:07:17;;;;;;;;;;;;;;;20.20;53.50;98951.28;10330883;28;814;-64
2023/07/23 03:12:13;;;;;;;;;;;;;;;20.20;53.51;98944.22;10330681;28;867;-64
2023/07/23 03:17:09;;;;;;;;;;;;;;;20.21;53.54;98937.13;10330514;28;1897;-64
2023/07/23 03:22:04;;;;;;;;;;;;;;;20.19;53.74;98934.56;10330915;28;860;-64
2023/07/23 03:27:00;;;;;;;;;;;;;;;20.20;53.54;98924.81;10330696;28;801;-64
2023/07/23 03:31:56;;;;;;;;;;;;;;;20.20;53.60;98917.75;10330149;28;1144;-64
2023/07/23 03:36:52;;;;;;;;;;;;;;;20.20;53.43;98924.81;10330334;28;1902;-64
2023/07/23 03:41:49;;;;;;;;;;;;;;;20.19;53.51;98921.31;10329519;28;926;-64
2023/07/23 03:46:45;;;;;;;;;;;;;;;20.18;53.42;98918.81;10329943;28;843;-64
2023/07/23 03:51:41;;;;;;;;;;;;;;;20.16;53.50;98918.88;10329746;28;804;-64
2023/07/23 03:56:37;;;;;;;;;;;;;;;20.16;53.41;98913.59;10328823;28;1978;-64
2023/07/23 04:01:33;;;;;;;;;;;;;;;20.16;53.54;98918.88;10329333;28;844;-64
2023/07/23 04:06:28;;;;;;;;;;;;;;;20.16;53.47;98913.59;10329143;28;810;-64
2023/07/23 04:11:24;;;;;;;;;;;;;;;20.16;53.39;98918.88;10328907;28;886;-64
2023/07/23 04:16:20;;;;;;;;;;;;;;;20.15;53.42;98914.56;10327455;28;1898;-64
2023/07/23 04:21:18;;;;;;;;;;;;;;;20.15;53.21;98909.28;10327805;28;916;-64
2023/07/23 04:26:14;;;;;;;;;;;;;;;20.14;53.37;98910.19;10327956;28;802;-64
2023/07/23 04:31:10;;;;;;;;;;;;;;;20.13;53.54;98900.59;10327177;28;1245;-64
2023/07/23 04:36:06;;;;;;;;;;;;;;;20.13;53.27;98908.50;10328057;28;1967;-64
2023/07/23 04:41:03;;;;;;;;;;;;;;;20.13;53.30;98911.16;10326533;28;1099;-64
2023/07/23 04:45:59;;;;;;;;;;;;;;;20.13;53.16;98903.22;10325545;28;901;-64
2023/07/23 04:50:55;;;;;;;;;;;;;;;20.12;53.30;98906.81;10326728;28;813;-64
2023/07/23 04:55:52;;;;;;;;;;;;;;;20.12;53.34;98902.38;10327130;28;1914;-64
2023/07/23 05:00:48;;;;;;;;;;;;;;;20.11;53.17;98897.19;10326432;28;899;-64
2023/07/23 05:05:44;;;;;;;;;;;;;;;20.11;53.18;98903.31;10326299;28;794;-64
2023/07/23 05:10:40;;;;;;;;;;;;;;;20.10;53.32;98898.16;10326170;28;870;-64
2023/07/23 05:15:36;;;;;;;;;;;;;;;20.10;53.08;98893.69;10325991;28;1906;-64
2023/07/23 05:20:31;;;;;;;;;;;;;;;20.09;53.08;98896.44;10326466;28;798;-64
2023/07/23 05:25:27;;;;;;;;;;;;;;;20.08;53.10;98886.81;10326479;28;1021;-64
2023/07/23 05:30:23;;;;;;;;;;;;;;;20.08;53.22;98898.22;10307768;28;1285;-64
2023/07/23 05:35:19;;;;;;;;;;;;;;;20.09;53.23;98899.06;10326105;28;842;-64
2023/07/23 05:40:15;;;;;;;;;;;;;;;20.08;53.15;98894.75;10325473;28;1913;-64
2023/07/23 05:45:11;;;;;;;;;;;;;;;20.08;52.92;98892.09;10325392;28;1023;-64
2023/07/23 05:50:07;;;;;;;;;;;;;;;20.06;52.99;98876.31;10325283;28;917;-64
2023/07/23 05:55:03;;;;;;;;;;;;;;;20.07;53.11;98877.19;10326840;28;774;-64
2023/07/23 05:59:58;;;;;;;;;;;;;;;20.07;52.92;98867.44;10333355;28;1972;-64
2023/07/23 06:04:54;;;;;;;;;;;;;;;20.06;53.15;98872.81;10334151;28;900;-63
2023/07/23 06:09:50;;;;;;;;;;;;;;;20.07;53.09;98883.31;10333116;28;921;-64
2023/07/23 06:14:46;;;;;;;;;;;;;;;20.07;53.15;98882.47;10332674;28;870;-64
2023/07/23 06:19:42;;;;;;;;;;;;;;;20.06;52.98;98881.59;10332537;28;1898;-64
2023/07/23 06:24:38;;;;;;;;;;;;;;;20.07;53.22;98875.38;10330486;28;1035;-65
2023/07/23 06:29:34;;;;;;;;;;;;;;;20.07;53.06;98869.25;10332054;28;806;-64
2023/07/23 06:34:29;;;;;;;;;;;;;;;20.06;53.12;98876.31;10331731;28;1282;-65
2023/07/23 06:39:25;;;;;;;;;;;;;;;20.07;53.24;98869.25;10332560;28;1981;-64
2023/07/23 06:44:21;;;;;;;;;;;;;;;20.05;53.28;98869.34;10331342;28;880;-64
2023/07/23 06:49:17;;;;;;;;;;;;;;;20.06;53.23;98872.81;10331112;28;1019;-64
2023/07/23 06:54:13;;;;;;;;;;;;;;;20.06;53.13;98880.75;10331531;28;842;-64
2023/07/23 06:59:09;;;;;;;;;;;;;;;20.06;53.05;98862.25;10331124;28;1897;-64
2023/07/23 07:04:06;;;;;;;;;;;;;;;20.06;53.20;98871.03;10330805;28;853;-65
2023/07/23 07:09:01;;;;;;;;;;;;;;;20.06;53.20;98854.31;10329864;28;942;-64
2023/07/23 07:13:57;;;;;;;;;;;;;;;20.05;53.29;98856.13;10329757;28;1247;-65
2023/07/23 07:18:53;;;;;;;;;;;;;;;20.06;53.22;98856.97;10330828;28;1898;-64
2023/07/23 07:23:49;;;;;;;;;;;;;;;20.06;53.17;98849.03;10330103;28;894;-65
2023/07/23 07:28:45;;;;;;;;;;;;;;;20.06;53.30;98846.38;10330108;28;916;-64
2023/07/23 07:33:43;;;;;;;;;;;;;;;20.06;53.30;98854.31;10330038;28;1113;-65
2023/07/23 07:38:39;;;;;;;;;;;;;;;20.06;53.23;98860.44;10329318;28;1914;-64
2023/07/23 07:43:35;;;;;;;;;;;;;;;20.05;53.40;98857.91;10329289;28;860;-64
2023/07/23 07:48:31;;;;;;;;;;;;;;;20.04;53.24;98861.50;10329669;28;833;-64
2023/07/23 07:53:27;;;;;;;;;;;;;;;20.03;53.05;98865.09;10328817;28;1061;-64
2023/07/23 07:58:26;;;;;;;;;;;;;;;20.04;53.16;98853.56;10328780;28;2357;-64
2023/07/23 08:03:23;;;;;;;;;;;;;;;20.03;53.23;98855.38;10328259;28;768;-66
2023/07/23 08:08:19;;;;;;;;;;;;;;;20.03;53.14;98862.47;10328371;28;953;-65
2023/07/23 08:13:15;;;;;;;;;;;;;;;20.03;53.04;98868.59;10327788;28;845;-64
2023/07/23 08:18:11;;;;;;;;;;;;;;;20.04;53.21;98886.19;10327460;28;1918;-65
2023/07/23 08:23:07;;;;;;;;;;;;;;;20.04;53.17;98872.06;10328590;28;797;-65
2023/07/23 08:28:03;;;;;;;;;;;;;;;20.04;53.31;98880.88;10327312;28;803;-65
2023/07/23 08:32:59;;;;;;;;;;;;;;;20.05;53.14;98892.31;10327692;28;1445;-65
2023/07/23 08:37:55;;;;;;;;;;;;;;;20.04;52.97;98887.94;10327269;28;1945;-64
2023/07/23 08:42:51;;;;;;;;;;;;;;;20.06;53.19;98894.00;10326577;28;936;-64
2023/07/23 08:47:47;;;;;;;;;;;;;;;20.06;52.80;98904.56;10326952;28;920;-64
2023/07/23 08:52:43;;;;;;;;;;;;;;;20.05;53.32;98900.25;10326454;28;767;-64
2023/07/23 08:57:39;;;;;;;;;;;;;;;20.06;53.28;98909.88;10326704;28;1894;-64
2023/07/23 09:02:35;;;;;;;;;;;;;;;20.06;53.39;98917.81;10325737;28;1035;-64
2023/07/23 09:07:30;;;;;;;;;;;;;;;20.05;53.49;98927.53;10326211;28;782;-64
2023/07/23 09:12:27;;;;;;;;;;;;;;;20.06;53.61;98931.03;10325911;28;814;-64
2023/07/23 09:17:23;;;;;;;;;;;;;;;20.05;53.70;98938.13;10325194;28;1961;-64
2023/07/23 09:22:18;;;;;;;;;;;;;;;20.06;53.57;98944.25;10325617;28;1003;-64
2023/07/23 09:27:16;;;;;;;;;;;;;;;20.05;53.51;98942.56;10324661;28;1038;-64
2023/07/23 09:32:11;;;;;;;;;;;;;;;20.06;53.69;98954.84;10325316;28;1259;-64
2023/07/23 09:37:07;;;;;;;;;;;;;;;20.05;53.57;98950.50;10324761;28;1921;-64
2023/07/23 09:42:04;;;;;;;;;;;;;;;20.05;53.89;98966.38;10325752;28;935;-64
2023/07/23 09:47:00;;;;;;;;;;;;;;;20.05;53.68;98961.09;10324769;28;973;-64
2023/07/23 09:51:56;;;;;;;;;;;;;;;20.04;53.72;98964.66;10325367;28;1010;-64
2023/07/23 09:56:52;;;;;;;;;;;;;;;20.03;53.76;98963.81;10324874;28;1898;-64
2023/07/23 10:01:47;;;;;;;;;;;;;;;20.02;53.66;98956.84;10325661;28;860;-64
2023/07/23 10:06:43;;;;;;;;;;;;;;;20.02;53.73;98954.19;10325156;28;868;-64
2023/07/23 10:11:39;;;;;;;;;;;;;;;20.03;53.68;98957.69;10324933;28;897;-64
2023/07/23 10:16:35;;;;;;;;;;;;;;;20.02;53.71;98966.59;10325357;28;1963;-64
2023/07/23 10:21:31;;;;;;;;;;;;;;;20.01;53.64;98964.88;10325276;28;812;-64
2023/07/23 10:26:27;;;;;;;;;;;;;;;20.02;53.50;98974.53;10324585;28;866;-64
2023/07/23 10:31:23;;;;;;;;;;;;;;;20.01;53.51;98967.50;10324872;28;1245;-64
2023/07/23 10:36:19;;;;;;;;;;;;;;;20.02;53.67;98966.59;10324445;28;1983;-64
2023/07/23 10:41:15;;;;;;;;;;;;;;;20.01;53.60;98971.00;10324316;28;810;-64
2023/07/23 10:46:11;;;;;;;;;;;;;;;20.01;53.47;98962.22;10332106;28;849;-65
2023/07/23 10:51:06;;;;;;;;;;;;;;;20.02;53.57;98959.50;10331568;28;806;-64
2023/07/23 10:56:02;;;;;;;;;;;;;;;20.02;53.79;98956.00;10330483;28;1967;-64
2023/07/23 11:00:58;;;;;;;;;;;;;;;20.01;53.72;98955.13;10330970;28;775;-64
2023/07/23 11:05:54;;;;;;;;;;;;;;;20.02;53.72;98940.97;10331299;28;867;-64
2023/07/23 11:10:50;;;;;;;;;;;;;;;20.03;53.86;98955.03;10330401;28;1176;-64
2023/07/23 11:15:46;;;;;;;;;;;;;;;20.02;53.72;98959.50;10329779;28;1898;-64
2023/07/23 11:20:42;;;;;;;;;;;;;;;20.03;53.93;98960.34;10330803;28;876;-64
2023/07/23 11:25:37;;;;;;;;;;;;;;;20.04;53.92;98967.31;10330077;28;885;-64
2023/07/23 11:30:33;;;;;;;;;;;;;;;20.03;54.02;98963.81;10329561;28;1260;-64
2023/07/23 11:35:29;;;;;;;;;;;;;;;20.04;54.19;98970.81;10329304;28;884;-65
2023/07/23 11:40:25;;;;;;;;;;;;;;;20.04;53.98;98968.19;10328819;28;1902;-65
2023/07/23 11:45:21;;;;;;;;;;;;;;;20.04;54.09;98968.19;10329898;28;912;-64
2023/07/23 11:50:17;;;;;;;;;;;;;;;20.04;54.22;98965.53;10329116;28;902;-64
2023/07/23 11:55:13;;;;;;;;;;;;;;;20.05;54.36;98977.81;10328546;28;810;-64
2023/07/23 12:00:09;;;;;;;;;;;;;;;20.05;54.14;98976.97;10328473;28;1960;-64
2023/07/23 12:05:05;;;;;;;;;;;;;;;20.05;54.31;98971.66;10329209;28;753;-65
2023/07/23 12:10:01;;;;;;;;;;;;;;;20.04;54.33;98962.88;10328262;28;858;-65
2023/07/23 12:14:56;;;;;;;;;;;;;;;20.05;54.34;98964.56;10328160;28;821;-64
2023/07/23 12:19:52;;;;;;;;;;;;;;;20.06;54.31;98954.84;10327805;28;1898;-64
2023/07/23 12:24:48;;;;;;;;;;;;;;;20.05;54.49;98969.88;10327659;28;810;-65
2023/07/23 12:29:45;;;;;;;;;;;;;;;20.06;54.49;98968.06;10327186;28;1229;-65
2023/07/23 12:34:41;;;;;;;;;;;;;;;20.06;54.41;98970.72;10327276;28;1133;-65
2023/07/23 12:39:36;;;;;;;;;;;;;;;20.06;54.39;98960.13;10327591;28;1906;-65
2023/07/23 12:44:32;;;;;;;;;;;;;;;20.06;54.65;98955.69;10327278;28;852;-65
2023/07/23 12:49:30;;;;;;;;;;;;;;;20.05;54.70;98956.63;10326133;28;956;-65
2023/07/23 12:54:26;;;;;;;;;;;;;;;20.06;54.90;98950.38;10326527;28;865;-65
2023/07/23 12:59:22;;;;;;;;;;;;;;;20.07;54.85;98959.19;10325706;28;1894;-65
2023/07/23 13:04:18;;;;;;;;;;;;;;;20.07;54.84;98960.03;10325418;28;870;-65
2023/07/23 13:09:15;;;;;;;;;;;;;;;20.07;54.81;98962.69;10326526;28;817;-65
2023/07/23 13:14:11;;;;;;;;;;;;;;;20.07;54.94;98964.50;10325805;28;895;-65
2023/07/23 13:19:07;;;;;;;;;;;;;;;20.09;55.07;98968.69;10325283;28;1894;-65
2023/07/23 13:24:03;;;;;;;;;;;;;;;20.08;55.00;98964.38;10322425;28;1141;-65
2023/07/23 13:28:59;;;;;;;;;;;;;;;20.08;55.08;98956.44;10325497;28;983;-65
2023/07/23 13:33:55;;;;;;;;;;;;;;;20.09;55.13;98954.63;10325965;28;1217;-65
2023/07/23 13:38:51;;;;;;;;;;;;;;;20.09;55.29;98952.81;10325238;28;1969;-65
2023/07/23 13:43:47;;;;;;;;;;;;;;;20.08;55.36;98959.09;10325652;28;1097;-65
2023/07/23 13:48:42;;;;;;;;;;;;;;;20.08;55.29;98956.44;10325146;28;881;-65
2023/07/23 13:53:38;;;;;;;;;;;;;;;20.10;55.30;98961.63;10324726;28;871;-65
2023/07/23 13:58:34;;;;;;;;;;;;;;;20.11;55.34;98955.38;10325143;28;1914;-64
2023/07/23 14:03:30;;;;;;;;;;;;;;;20.11;55.39;98958.03;10325744;28;847;-64
2023/07/23 14:08:26;;;;;;;;;;;;;;;20.09;55.48;98951.97;10324999;28;802;-65
2023/07/23 14:13:22;;;;;;;;;;;;;;;20.10;55.42;98949.25;10325498;28;794;-65
2023/07/23 14:18:18;;;;;;;;;;;;;;;20.08;55.39;98935.28;10329662;28;1894;-65
2023/07/23 14:23:14;;;;;;;;;;;;;;;20.09;55.62;98946.69;10332753;28;893;-65
2023/07/23 14:28:10;;;;;;;;;;;;;;;20.09;55.63;98954.63;10332584;28;809;-65
2023/07/23 14:33:05;;;;;;;;;;;;;;;20.09;55.55;98954.63;10332678;28;1425;-65
2023/07/23 14:38:01;;;;;;;;;;;;;;;20.10;55.41;98956.34;10332652;28;1902;-64
2023/07/23 14:42:57;;;;;;;;;;;;;;;20.09;55.57;98944.03;10331825;28;846;-64
2023/07/23 14:47:53;;;;;;;;;;;;;;;20.10;55.77;98936.03;10332261;28;897;-64
2023/07/23 14:52:49;;;;;;;;;;;;;;;20.11;56.00;98934.22;10331535;28;857;-64
2023/07/23 14:57:45;;;;;;;;;;;;;;;20.12;55.47;98930.63;10331441;28;1878;-65
2023/07/23 15:02:41;;;;;;;;;;;;;;;20.12;56.04;98927.97;10330760;28;1015;-64
2023/07/23 15:07:37;;;;;;;;;;;;;;;20.13;55.81;98929.69;10331633;28;807;-65
2023/07/23 15:12:33;;;;;;;;;;;;;;;20.13;55.66;98927.03;10331067;28;897;-65
2023/07/23 15:17:28;;;;;;;;;;;;;;;20.13;55.82;98932.31;10330624;28;1902;-65
2023/07/23 15:22:24;;;;;;;;;;;;;;;20.13;55.75;98927.03;10312616;28;833;-65
2023/07/23 15:27:20;;;;;;;;;;;;;;;20.13;56.08;98919.09;10330087;28;805;-65
2023/07/23 15:32:16;;;;;;;;;;;;;;;20.16;55.79;98923.34;10330136;28;1271;-66
2023/07/23 15:37:12;;;;;;;;;;;;;;;20.20;55.81;98915.09;10330461;28;1973;-66
2023/07/23 15:42:08;;;;;;;;;;;;;;;20.23;55.82;98917.53;10329796;28;872;-65
2023/07/23 15:47:04;;;;;;;;;;;;;;;20.23;55.73;98914.91;10329521;28;780;-66
2023/07/23 15:52:00;;;;;;;;;;;;;;;20.23;55.96;98912.25;10329612;28;896;-66
2023/07/23 15:56:55;;;;;;;;;;;;;;;20.25;55.87;98918.28;10328579;28;1890;-66
2023/07/23 16:01:51;;;;;;;;;;;;;;;20.26;56.00;98904.09;10328951;28;859;-66
2023/07/23 16:06:47;;;;;;;;;;;;;;;20.38;55.61;98896.28;10328184;28;880;-66
2023/07/23 16:11:43;;;;;;;;;;;;;;;20.44;55.69;98885.28;10328598;28;837;-66
2023/07/23 16:16:39;;;;;;;;;;;;;;;20.38;55.87;98869.81;10328213;28;1886;-66
2023/07/23 16:21:35;;;;;;;;;;;;;;;20.40;56.03;98879.34;10328083;28;794;-67
2023/07/23 16:26:31;;;;;;;;;;;;;;;20.41;56.36;98880.19;10327953;28;795;-67
2023/07/23 16:31:27;;;;;;;;;;;;;;;20.43;56.31;98880.94;10328072;28;1132;-66
2023/07/23 16:36:22;;;;;;;;;;;;;;;20.42;56.38;98884.53;10327562;28;1969;-66
2023/07/23 16:41:18;;;;;;;;;;;;;;;20.43;56.26;98875.66;10327416;28;867;-66
2023/07/23 16:46:14;;;;;;;;;;;;;;;20.44;56.36;98864.97;10327160;28;923;-66
2023/07/23 16:51:10;;;;;;;;;;;;;;;20.49;56.10;98856.72;10327214;28;755;-66
2023/07/23 16:56:06;;;;;;;;;;;;;;;20.47;56.15;98840.91;10327912;28;1955;-66
2023/07/23 17:01:02;;;;;;;;;;;;;;;20.46;55.96;98847.19;10326247;28;1066;-66
2023/07/23 17:05:58;;;;;;;;;;;;;;;20.45;55.98;98828.75;10326457;28;934;-65
2023/07/23 17:10:53;;;;;;;;;;;;;;;20.44;56.03;98833.19;10326326;28;810;-66
2023/07/23 17:15:49;;;;;;;;;;;;;;;20.43;56.12;98828.00;10326083;28;869;-66
2023/07/23 17:20:46;;;;;;;;;;;;;;;20.42;56.13;98828.97;10326531;28;1953;-65
2023/07/23 17:25:42;;;;;;;;;;;;;;;20.40;56.02;98825.56;10325821;28;906;-65
2023/07/23 17:30:38;;;;;;;;;;;;;;;20.40;56.04;98828.22;10325610;28;1259;-66
2023/07/23 17:35:34;;;;;;;;;;;;;;;20.38;55.82;98817.72;10326325;28;780;-65
2023/07/23 17:40:30;;;;;;;;;;;;;;;20.35;56.25;98821.41;10325534;28;1973;-66
2023/07/23 17:45:26;;;;;;;;;;;;;;;20.34;56.25;98817.09;10325829;28;938;-66
2023/07/23 17:50:22;;;;;;;;;;;;;;;20.34;56.07;98821.53;10324617;28;936;-66
2023/07/23 17:55:18;;;;;;;;;;;;;;;20.32;56.19;98819.00;10324649;28;916;-66
2023/07/23 18:00:14;;;;;;;;;;;;;;;20.32;56.32;98816.34;10324912;28;1953;-65
2023/07/23 18:05:09;;;;;;;;;;;;;;;20.33;56.32;98812.75;10325221;28;909;-66
2023/07/23 18:10:05;;;;;;;;;;;;;;;20.33;56.31;98804.81;10325020;28;924;-66
2023/07/23 18:15:01;;;;;;;;;;;;;;;20.32;56.28;98805.75;10326157;28;861;-66
2023/07/23 18:19:57;;;;;;;;;;;;;;;20.32;56.22;98802.28;10324750;28;1898;-66
2023/07/23 18:24:53;;;;;;;;;;;;;;;20.31;56.24;98805.88;10325255;28;944;-66
2023/07/23 18:29:49;;;;;;;;;;;;;;;20.31;56.30;98805.88;10324975;28;1107;-66
2023/07/23 18:34:45;;;;;;;;;;;;;;;20.30;56.50;98820.91;10307507;28;806;-66
2023/07/23 18:39:41;;;;;;;;;;;;;;;20.32;56.41;98803.09;10325126;28;1917;-66
2023/07/23 18:44:36;;;;;;;;;;;;;;;20.33;56.56;98809.25;10324870;28;787;-66
2023/07/23 18:49:32;;;;;;;;;;;;;;;20.32;56.71;98796.97;10324226;28;806;-66
2023/07/23 18:54:28;;;;;;;;;;;;;;;20.32;56.70;98800.47;10323559;28;984;-66
2023/07/23 18:59:24;;;;;;;;;;;;;;;20.33;56.96;98798.66;10323964;28;1906;-66
2023/07/23 19:04:20;;;;;;;;;;;;;;;20.33;57.20;98793.38;10327218;28;851;-65
2023/07/23 19:09:16;;;;;;;;;;;;;;;20.32;57.36;98803.09;10331178;28;917;-66
2023/07/23 19:14:12;;;;;;;;;;;;;;;20.34;56.92;98793.28;10330800;28;889;-66
2023/07/23 19:19:07;;;;;;;;;;;;;;;20.33;57.08;98791.59;10330398;28;1957;-66
2023/07/23 19:24:03;;;;;;;;;;;;;;;20.31;57.15;98796.13;10331072;28;855;-66
2023/07/23 19:29:01;;;;;;;;;;;;;;;20.32;57.17;98799.63;10330370;28;837;-66
2023/07/23 19:33:57;;;;;;;;;;;;;;;20.30;57.10;98810.34;10331074;28;1183;-65
2023/07/23 19:38:53;;;;;;;;;;;;;;;20.30;57.40;98820.91;10329913;28;1974;-66
2023/07/23 19:43:49;;;;;;;;;;;;;;;20.29;57.17;98829.78;10329733;28;949;-66
2023/07/23 19:48:45;;;;;;;;;;;;;;;20.29;57.34;98834.25;10329595;28;895;-66
2023/07/23 19:53:41;;;;;;;;;;;;;;;20.27;57.24;98839.63;10330001;28;854;-66
2023/07/23 19:58:37;;;;;;;;;;;;;;;20.27;57.34;98847.56;10328798;28;1969;-66
2023/07/23 20:03:33;;;;;;;;;;;;;;;20.27;57.32;98842.28;10328997;28;756;-66
2023/07/23 20:08:28;;;;;;;;;;;;;;;20.26;57.21;98837.94;10328780;28;848;-66
2023/07/23 20:13:24;;;;;;;;;;;;;;;20.26;57.26;98839.75;10328287;28;771;-67
2023/07/23 20:18:20;;;;;;;;;;;;;;;20.25;57.44;98844.19;10328248;28;1898;-66
2023/07/23 20:23:16;;;;;;;;;;;;;;;20.25;57.21;98835.38;10328795;28;862;-66
2023/07/23 20:28:12;;;;;;;;;;;;;;;20.23;57.31;98843.44;10327959;28;782;-66
2023/07/23 20:33:08;;;;;;;;;;;;;;;20.24;57.22;98844.28;10326924;28;1508;-66
2023/07/23 20:38:04;;;;;;;;;;;;;;;20.24;57.36;98846.94;10326915;28;1910;-66
2023/07/23 20:43:00;;;;;;;;;;;;;;;20.23;57.31;98839.97;10327324;28;865;-66
2023/07/23 20:47:56;;;;;;;;;;;;;;;20.22;57.17;98831.16;10327170;28;798;-66
2023/07/23 20:52:52;;;;;;;;;;;;;;;20.22;57.23;98827.66;10326892;28;906;-66
2023/07/23 20:57:48;;;;;;;;;;;;;;;20.21;57.23;98824.19;10326115;28;1948;-66
2023/07/23 21:02:44;;;;;;;;;;;;;;;20.22;57.29;98830.31;10327227;28;981;-66
2023/07/23 21:07:40;;;;;;;;;;;;;;;20.21;57.26;98828.63;10327035;28;841;-66
2023/07/23 21:12:36;;;;;;;;;;;;;;;20.21;57.16;98823.34;10325772;28;901;-66
2023/07/23 21:17:31;;;;;;;;;;;;;;;20.21;57.25;98825.97;10325426;28;1947;-66
2023/07/23 21:22:27;;;;;;;;;;;;;;;20.20;57.26;98819.84;10326064;28;912;-66
2023/07/23 21:27:23;;;;;;;;;;;;;;;20.19;57.21;98818.13;10325911;28;860;-66
2023/07/23 21:32:19;;;;;;;;;;;;;;;20.20;57.32;98813.69;10325667;28;1306;-66
2023/07/23 21:37:15;;;;;;;;;;;;;;;20.19;57.16;98810.19;10325733;28;1972;-66
2023/07/23 21:42:11;;;;;;;;;;;;;;;20.19;57.26;98802.25;10325571;28;928;-66
2023/07/23 21:47:07;;;;;;;;;;;;;;;20.19;57.27;98801.41;10325400;28;889;-66
2023/07/23 21:52:02;;;;;;;;;;;;;;;20.19;57.26;98798.78;10324818;28;818;-66
2023/07/23 21:56:58;;;;;;;;;;;;;;;20.19;57.35;98796.13;10325220;28;1890;-66
2023/07/23 22:01:54;;;;;;;;;;;;;;;20.17;57.18;98790.94;10325254;28;866;-66
2023/07/23 22:06:50;;;;;;;;;;;;;;;20.19;57.13;98788.19;10325119;28;947;-66
2023/07/23 22:11:46;;;;;;;;;;;;;;;20.17;57.14;98783.00;10325528;28;877;-66
2023/07/23 22:16:42;;;;;;;;;;;;;;;20.17;57.22;98776.84;10324968;28;1890;-66
2023/07/23 22:21:38;;;;;;;;;;;;;;;20.17;57.15;98758.34;10324798;28;783;-66
2023/07/23 22:26:33;;;;;;;;;;;;;;;20.16;57.20;98778.66;10325594;28;979;-66
2023/07/23 22:31:29;;;;;;;;;;;;;;;20.16;57.21;98770.72;10324675;28;1324;-66
2023/07/23 22:36:25;;;;;;;;;;;;;;;20.17;57.08;98776.84;10325857;28;1990;-66
2023/07/23 22:41:21;;;;;;;;;;;;;;;20.16;57.09;98778.66;10333207;28;767;-66
2023/07/23 22:46:17;;;;;;;;;;;;;;;20.16;57.09;98776.03;10332692;28;869;-66
2023/07/23 22:51:13;;;;;;;;;;;;;;;20.16;56.99;98777.81;10332603;28;810;-66
2023/07/23 22:56:09;;;;;;;;;;;;;;;20.15;57.09;98774.34;10331963;28;1955;-66
2023/07/23 23:01:05;;;;;;;;;;;;;;;20.16;57.08;98770.72;10330780;28;1000;-66
2023/07/23 23:06:00;;;;;;;;;;;;;;;20.17;57.14;98775.06;10331886;28;926;-66
2023/07/23 23:10:56;;;;;;;;;;;;;;;20.15;57.07;98763.75;10331040;28;864;-68
2023/07/23 23:15:52;;;;;;;;;;;;;;;20.15;57.13;98766.41;10331647;28;801;-68
2023/07/23 23:20:48;;;;;;;;;;;;;;;20.15;57.12;98761.09;10330656;28;1956;-68
2023/07/23 23:25:46;;;;;;;;;;;;;;;20.14;57.15;98756.75;10330435;28;811;-68
2023/07/23 23:30:42;;;;;;;;;;;;;;;20.14;57.07;98747.00;10330284;28;1148;-68
2023/07/23 23:35:38;;;;;;;;;;;;;;;20.13;57.11;98740.03;10329935;28;802;-68
2023/07/23 23:40:34;;;;;;;;;;;;;;;20.13;57.09;98742.69;10329900;28;1902;-68
2023/07/23 23:45:30;;;;;;;;;;;;;;;20.13;56.98;98741.84;10329880;28;782;-68
2023/07/23 23:50:26;;;;;;;;;;;;;;;20.13;57.15;98750.63;10329522;28;931;-68
2023/07/23 23:55:22;;;;;;;;;;;;;;;20.13;56.91;98744.47;10329373;28;974;-68
